sensor_id;sensor_type;location;lat;lon;timestamp;P1;durP1;ratioP1;P2;durP2;ratioP2
14048;SDS011;7099;53.922;10.728;2023-10-09T00:03:47;7.67;;;1.70;;
14048;SDS011;7099;53.922;10.728;2023-10-09T00:07:58;3.13;;;1.53;;
14048;SDS011;7099;53.922;10.728;2023-10-09T00:12:04;7.10;;;1.80;;
14048;SDS011;7099;53.922;10.728;2023-10-09T00:16:18;4.10;;;1.40;;
14048;SDS011;7099;53.922;10.728;2023-10-09T00:20:49;1.97;;;1.30;;
14048;SDS011;7099;53.922;10.728;2023-10-09T00:24:59;4.60;;;2.10;;
14048;SDS011;7099;53.922;10.728;2023-10-09T00:29:28;3.83;;;1.80;;
14048;SDS011;7099;53.922;10.728;2023-10-09T00:33:40;4.33;;;1.47;;
14048;SDS011;7099;53.922;10.728;2023-10-09T00:37:48;2.93;;;1.60;;
14048;SDS011;7099;53.922;10.728;2023-10-09T00:41:56;2.03;;;1.50;;
14048;SDS011;7099;53.922;10.728;2023-10-09T00:46:04;5.43;;;2.10;;
14048;SDS011;7099;53.922;10.728;2023-10-09T00:50:24;2.50;;;1.60;;
14048;SDS011;7099;53.922;10.728;2023-10-09T00:54:31;2.33;;;1.33;;
14048;SDS011;7099;53.922;10.728;2023-10-09T00:58:46;2.13;;;1.67;;
14048;SDS011;7099;53.922;10.728;2023-10-09T01:03:13;6.10;;;1.90;;
14048;SDS011;7099;53.922;10.728;2023-10-09T01:07:21;5.50;;;1.93;;
14048;SDS011;7099;53.922;10.728;2023-10-09T01:11:30;5.00;;;1.77;;
14048;SDS011;7099;53.922;10.728;2023-10-09T01:15:37;5.40;;;1.50;;
14048;SDS011;7099;53.922;10.728;2023-10-09T01:19:48;1.97;;;1.50;;
14048;SDS011;7099;53.922;10.728;2023-10-09T01:24:00;3.87;;;1.57;;
14048;SDS011;7099;53.922;10.728;2023-10-09T01:28:09;3.97;;;1.60;;
14048;SDS011;7099;53.922;10.728;2023-10-09T01:32:21;5.87;;;1.83;;
14048;SDS011;7099;53.922;10.728;2023-10-09T01:36:26;2.40;;;1.80;;
14048;SDS011;7099;53.922;10.728;2023-10-09T01:40:38;9.47;;;2.20;;
14048;SDS011;7099;53.922;10.728;2023-10-09T01:44:45;2.93;;;2.00;;
14048;SDS011;7099;53.922;10.728;2023-10-09T01:48:53;7.00;;;2.00;;
14048;SDS011;7099;53.922;10.728;2023-10-09T01:52:59;2.37;;;2.17;;
14048;SDS011;7099;53.922;10.728;2023-10-09T01:57:10;2.70;;;1.90;;
14048;SDS011;7099;53.922;10.728;2023-10-09T02:01:19;4.43;;;1.73;;
14048;SDS011;7099;53.922;10.728;2023-10-09T02:05:26;2.70;;;1.73;;
14048;SDS011;7099;53.922;10.728;2023-10-09T02:09:31;4.30;;;1.57;;
14048;SDS011;7099;53.922;10.728;2023-10-09T02:13:37;4.40;;;1.67;;
14048;SDS011;7099;53.922;10.728;2023-10-09T02:17:46;2.83;;;1.97;;
14048;SDS011;7099;53.922;10.728;2023-10-09T02:22:05;2.73;;;1.90;;
14048;SDS011;7099;53.922;10.728;2023-10-09T02:26:18;8.73;;;2.00;;
14048;SDS011;7099;53.922;10.728;2023-10-09T02:30:31;4.40;;;1.70;;
14048;SDS011;7099;53.922;10.728;2023-10-09T02:34:39;3.00;;;1.63;;
14048;SDS011;7099;53.922;10.728;2023-10-09T02:38:46;3.97;;;1.70;;
14048;SDS011;7099;53.922;10.728;2023-10-09T02:42:53;2.10;;;1.50;;
14048;SDS011;7099;53.922;10.728;2023-10-09T02:46:59;2.43;;;1.90;;
14048;SDS011;7099;53.922;10.728;2023-10-09T02:51:10;3.03;;;1.80;;
14048;SDS011;7099;53.922;10.728;2023-10-09T02:55:23;3.07;;;2.00;;
14048;SDS011;7099;53.922;10.728;2023-10-09T02:59:30;5.30;;;2.03;;
14048;SDS011;7099;53.922;10.728;2023-10-09T03:03:36;2.70;;;1.63;;
14048;SDS011;7099;53.922;10.728;2023-10-09T03:07:43;2.73;;;1.70;;
14048;SDS011;7099;53.922;10.728;2023-10-09T03:11:49;2.70;;;1.70;;
14048;SDS011;7099;53.922;10.728;2023-10-09T03:15:58;3.43;;;1.50;;
14048;SDS011;7099;53.922;10.728;2023-10-09T03:20:07;3.23;;;1.67;;
14048;SDS011;7099;53.922;10.728;2023-10-09T03:24:17;4.03;;;2.10;;
14048;SDS011;7099;53.922;10.728;2023-10-09T03:28:27;2.90;;;1.87;;
14048;SDS011;7099;53.922;10.728;2023-10-09T03:32:33;3.43;;;1.60;;
14048;SDS011;7099;53.922;10.728;2023-10-09T03:36:38;3.37;;;2.10;;
14048;SDS011;7099;53.922;10.728;2023-10-09T03:40:44;1.97;;;1.50;;
14048;SDS011;7099;53.922;10.728;2023-10-09T03:44:53;2.93;;;1.93;;
14048;SDS011;7099;53.922;10.728;2023-10-09T03:49:02;4.80;;;2.07;;
14048;SDS011;7099;53.922;10.728;2023-10-09T03:53:15;3.33;;;2.07;;
14048;SDS011;7099;53.922;10.728;2023-10-09T03:57:22;4.53;;;2.07;;
14048;SDS011;7099;53.922;10.728;2023-10-09T04:01:29;4.13;;;2.10;;
14048;SDS011;7099;53.922;10.728;2023-10-09T04:05:42;3.27;;;1.70;;
14048;SDS011;7099;53.922;10.728;2023-10-09T04:09:48;3.43;;;2.00;;
14048;SDS011;7099;53.922;10.728;2023-10-09T04:14:07;9.73;;;2.50;;
14048;SDS011;7099;53.922;10.728;2023-10-09T04:18:17;5.50;;;2.40;;
14048;SDS011;7099;53.922;10.728;2023-10-09T04:22:23;7.13;;;2.67;;
14048;SDS011;7099;53.922;10.728;2023-10-09T04:26:32;3.10;;;2.20;;
14048;SDS011;7099;53.922;10.728;2023-10-09T04:30:40;7.03;;;2.63;;
14048;SDS011;7099;53.922;10.728;2023-10-09T04:34:48;6.50;;;2.60;;
14048;SDS011;7099;53.922;10.728;2023-10-09T04:38:54;2.90;;;2.33;;
14048;SDS011;7099;53.922;10.728;2023-10-09T04:43:09;5.07;;;2.80;;
14048;SDS011;7099;53.922;10.728;2023-10-09T04:47:26;2.87;;;1.97;;
14048;SDS011;7099;53.922;10.728;2023-10-09T04:51:42;5.13;;;3.20;;
14048;SDS011;7099;53.922;10.728;2023-10-09T04:56:04;5.40;;;2.43;;
14048;SDS011;7099;53.922;10.728;2023-10-09T05:00:21;6.67;;;2.80;;
14048;SDS011;7099;53.922;10.728;2023-10-09T05:04:29;6.37;;;2.90;;
14048;SDS011;7099;53.922;10.728;2023-10-09T05:08:45;8.20;;;2.67;;
14048;SDS011;7099;53.922;10.728;2023-10-09T05:12:53;3.17;;;2.40;;
14048;SDS011;7099;53.922;10.728;2023-10-09T05:17:07;5.20;;;2.97;;
14048;SDS011;7099;53.922;10.728;2023-10-09T05:21:21;5.20;;;2.80;;
14048;SDS011;7099;53.922;10.728;2023-10-09T05:25:49;4.00;;;2.90;;
14048;SDS011;7099;53.922;10.728;2023-10-09T05:29:58;9.57;;;5.40;;
14048;SDS011;7099;53.922;10.728;2023-10-09T05:34:26;5.47;;;3.17;;
14048;SDS011;7099;53.922;10.728;2023-10-09T05:38:39;3.13;;;2.60;;
14048;SDS011;7099;53.922;10.728;2023-10-09T05:42:51;5.47;;;2.80;;
14048;SDS011;7099;53.922;10.728;2023-10-09T05:47:04;4.23;;;2.80;;
14048;SDS011;7099;53.922;10.728;2023-10-09T05:51:34;7.80;;;2.90;;
14048;SDS011;7099;53.922;10.728;2023-10-09T05:55:47;3.87;;;2.83;;
14048;SDS011;7099;53.922;10.728;2023-10-09T06:00:11;4.50;;;2.73;;
14048;SDS011;7099;53.922;10.728;2023-10-09T06:04:37;7.97;;;4.10;;
14048;SDS011;7099;53.922;10.728;2023-10-09T06:09:00;4.80;;;2.90;;
14048;SDS011;7099;53.922;10.728;2023-10-09T06:13:20;6.23;;;2.70;;
14048;SDS011;7099;53.922;10.728;2023-10-09T06:17:51;3.80;;;2.23;;
14048;SDS011;7099;53.922;10.728;2023-10-09T06:21:57;4.93;;;2.50;;
14048;SDS011;7099;53.922;10.728;2023-10-09T06:26:22;3.90;;;2.43;;
14048;SDS011;7099;53.922;10.728;2023-10-09T06:30:29;7.23;;;2.40;;
14048;SDS011;7099;53.922;10.728;2023-10-09T06:34:39;5.50;;;2.10;;
14048;SDS011;7099;53.922;10.728;2023-10-09T06:38:49;5.53;;;2.10;;
14048;SDS011;7099;53.922;10.728;2023-10-09T06:43:21;4.53;;;1.70;;
14048;SDS011;7099;53.922;10.728;2023-10-09T06:47:31;4.60;;;2.17;;
14048;SDS011;7099;53.922;10.728;2023-10-09T06:51:46;4.30;;;1.93;;
14048;SDS011;7099;53.922;10.728;2023-10-09T06:55:51;6.13;;;1.70;;
14048;SDS011;7099;53.922;10.728;2023-10-09T06:59:57;2.40;;;1.90;;
14048;SDS011;7099;53.922;10.728;2023-10-09T07:04:35;4.93;;;1.93;;
14048;SDS011;7099;53.922;10.728;2023-10-09T07:08:41;5.53;;;1.70;;
14048;SDS011;7099;53.922;10.728;2023-10-09T07:13:02;2.40;;;1.93;;
14048;SDS011;7099;53.922;10.728;2023-10-09T07:17:11;2.90;;;1.87;;
14048;SDS011;7099;53.922;10.728;2023-10-09T07:21:46;4.70;;;2.23;;
14048;SDS011;7099;53.922;10.728;2023-10-09T07:26:02;4.87;;;1.60;;
14048;SDS011;7099;53.922;10.728;2023-10-09T07:30:23;3.73;;;1.90;;
14048;SDS011;7099;53.922;10.728;2023-10-09T07:34:35;4.80;;;1.73;;
14048;SDS011;7099;53.922;10.728;2023-10-09T07:38:58;3.20;;;1.93;;
14048;SDS011;7099;53.922;10.728;2023-10-09T07:43:04;1.90;;;1.50;;
14048;SDS011;7099;53.922;10.728;2023-10-09T07:47:10;5.07;;;1.80;;
14048;SDS011;7099;53.922;10.728;2023-10-09T07:51:24;2.83;;;1.57;;
14048;SDS011;7099;53.922;10.728;2023-10-09T07:55:38;3.53;;;1.90;;
14048;SDS011;7099;53.922;10.728;2023-10-09T07:59:50;3.10;;;1.70;;
14048;SDS011;7099;53.922;10.728;2023-10-09T08:04:04;3.40;;;1.87;;
14048;SDS011;7099;53.922;10.728;2023-10-09T08:08:16;2.83;;;1.93;;
14048;SDS011;7099;53.922;10.728;2023-10-09T08:12:43;2.40;;;1.63;;
14048;SDS011;7099;53.922;10.728;2023-10-09T08:16:49;2.97;;;1.53;;
14048;SDS011;7099;53.922;10.728;2023-10-09T08:21:16;8.27;;;2.00;;
14048;SDS011;7099;53.922;10.728;2023-10-09T08:25:43;10.50;;;1.83;;
14048;SDS011;7099;53.922;10.728;2023-10-09T08:30:03;7.90;;;2.40;;
14048;SDS011;7099;53.922;10.728;2023-10-09T08:34:24;2.30;;;1.80;;
14048;SDS011;7099;53.922;10.728;2023-10-09T08:38:33;8.20;;;1.90;;
14048;SDS011;7099;53.922;10.728;2023-10-09T08:42:39;5.83;;;2.40;;
14048;SDS011;7099;53.922;10.728;2023-10-09T08:46:45;5.20;;;2.07;;
14048;SDS011;7099;53.922;10.728;2023-10-09T08:50:51;4.60;;;2.33;;
14048;SDS011;7099;53.922;10.728;2023-10-09T08:55:00;5.57;;;2.40;;
14048;SDS011;7099;53.922;10.728;2023-10-09T08:59:05;6.83;;;2.30;;
14048;SDS011;7099;53.922;10.728;2023-10-09T09:03:17;10.43;;;2.10;;
14048;SDS011;7099;53.922;10.728;2023-10-09T09:07:30;5.50;;;2.97;;
14048;SDS011;7099;53.922;10.728;2023-10-09T09:11:41;5.00;;;2.60;;
14048;SDS011;7099;53.922;10.728;2023-10-09T09:15:54;5.87;;;2.80;;
14048;SDS011;7099;53.922;10.728;2023-10-09T09:20:14;4.50;;;2.60;;
14048;SDS011;7099;53.922;10.728;2023-10-09T09:24:32;4.53;;;2.20;;
14048;SDS011;7099;53.922;10.728;2023-10-09T09:28:44;3.37;;;2.70;;
14048;SDS011;7099;53.922;10.728;2023-10-09T09:37:51;4.70;;;2.60;;
14048;SDS011;7099;53.922;10.728;2023-10-09T09:42:00;5.10;;;3.20;;
14048;SDS011;7099;53.922;10.728;2023-10-09T09:46:12;4.47;;;3.20;;
14048;SDS011;7099;53.922;10.728;2023-10-09T09:50:20;5.20;;;3.10;;
14048;SDS011;7099;53.922;10.728;2023-10-09T09:54:34;6.20;;;3.17;;
14048;SDS011;7099;53.922;10.728;2023-10-09T09:58:41;6.17;;;3.13;;
14048;SDS011;7099;53.922;10.728;2023-10-09T10:02:51;7.47;;;2.80;;
14048;SDS011;7099;53.922;10.728;2023-10-09T10:07:03;6.90;;;3.03;;
14048;SDS011;7099;53.922;10.728;2023-10-09T10:11:40;3.63;;;2.60;;
14048;SDS011;7099;53.922;10.728;2023-10-09T10:15:57;3.97;;;2.80;;
14048;SDS011;7099;53.922;10.728;2023-10-09T10:20:08;5.20;;;3.07;;
14048;SDS011;7099;53.922;10.728;2023-10-09T10:28:33;7.03;;;2.80;;
14048;SDS011;7099;53.922;10.728;2023-10-09T10:36:56;4.20;;;2.60;;
14048;SDS011;7099;53.922;10.728;2023-10-09T10:41:17;2.80;;;2.20;;
14048;SDS011;7099;53.922;10.728;2023-10-09T10:45:27;3.40;;;2.60;;
14048;SDS011;7099;53.922;10.728;2023-10-09T10:49:54;3.90;;;2.43;;
14048;SDS011;7099;53.922;10.728;2023-10-09T10:54:04;4.13;;;2.93;;
14048;SDS011;7099;53.922;10.728;2023-10-09T10:58:41;2.30;;;2.10;;
14048;SDS011;7099;53.922;10.728;2023-10-09T11:03:07;4.03;;;2.47;;
14048;SDS011;7099;53.922;10.728;2023-10-09T11:07:21;7.90;;;2.50;;
14048;SDS011;7099;53.922;10.728;2023-10-09T11:11:31;2.70;;;2.13;;
14048;SDS011;7099;53.922;10.728;2023-10-09T11:15:45;7.10;;;2.80;;
14048;SDS011;7099;53.922;10.728;2023-10-09T11:19:52;5.63;;;2.80;;
14048;SDS011;7099;53.922;10.728;2023-10-09T11:23:58;2.90;;;2.30;;
14048;SDS011;7099;53.922;10.728;2023-10-09T11:28:15;2.93;;;2.20;;
14048;SDS011;7099;53.922;10.728;2023-10-09T11:32:46;3.00;;;1.70;;
14048;SDS011;7099;53.922;10.728;2023-10-09T11:36:55;2.13;;;1.93;;
14048;SDS011;7099;53.922;10.728;2023-10-09T11:41:12;2.40;;;1.80;;
14048;SDS011;7099;53.922;10.728;2023-10-09T11:45:28;2.50;;;1.50;;
14048;SDS011;7099;53.922;10.728;2023-10-09T11:49:34;3.40;;;1.63;;
14048;SDS011;7099;53.922;10.728;2023-10-09T11:53:49;5.40;;;1.73;;
14048;SDS011;7099;53.922;10.728;2023-10-09T11:57:55;5.83;;;2.10;;
14048;SDS011;7099;53.922;10.728;2023-10-09T12:02:00;1.80;;;1.60;;
14048;SDS011;7099;53.922;10.728;2023-10-09T12:06:09;2.30;;;1.83;;
14048;SDS011;7099;53.922;10.728;2023-10-09T12:10:17;2.13;;;1.77;;
14048;SDS011;7099;53.922;10.728;2023-10-09T12:14:29;2.37;;;2.00;;
14048;SDS011;7099;53.922;10.728;2023-10-09T12:18:38;2.43;;;2.03;;
14048;SDS011;7099;53.922;10.728;2023-10-09T12:22:44;2.20;;;1.90;;
14048;SDS011;7099;53.922;10.728;2023-10-09T12:26:50;3.07;;;2.00;;
14048;SDS011;7099;53.922;10.728;2023-10-09T12:30:59;4.27;;;2.27;;
14048;SDS011;7099;53.922;10.728;2023-10-09T12:35:07;2.83;;;2.20;;
14048;SDS011;7099;53.922;10.728;2023-10-09T12:39:22;3.87;;;2.40;;
14048;SDS011;7099;53.922;10.728;2023-10-09T12:43:27;3.50;;;2.90;;
14048;SDS011;7099;53.922;10.728;2023-10-09T12:47:34;4.47;;;2.60;;
14048;SDS011;7099;53.922;10.728;2023-10-09T12:51:42;5.07;;;3.37;;
14048;SDS011;7099;53.922;10.728;2023-10-09T12:55:48;5.53;;;3.03;;
14048;SDS011;7099;53.922;10.728;2023-10-09T12:59:54;4.70;;;3.40;;
14048;SDS011;7099;53.922;10.728;2023-10-09T13:04:00;4.50;;;3.10;;
14048;SDS011;7099;53.922;10.728;2023-10-09T13:08:06;5.13;;;3.20;;
14048;SDS011;7099;53.922;10.728;2023-10-09T13:12:16;4.17;;;3.50;;
14048;SDS011;7099;53.922;10.728;2023-10-09T13:16:25;3.77;;;3.20;;
14048;SDS011;7099;53.922;10.728;2023-10-09T13:20:32;4.87;;;3.50;;
14048;SDS011;7099;53.922;10.728;2023-10-09T13:24:40;8.67;;;3.83;;
14048;SDS011;7099;53.922;10.728;2023-10-09T13:28:47;4.20;;;3.50;;
14048;SDS011;7099;53.922;10.728;2023-10-09T13:32:57;9.90;;;3.40;;
14048;SDS011;7099;53.922;10.728;2023-10-09T13:37:05;4.13;;;3.10;;
14048;SDS011;7099;53.922;10.728;2023-10-09T13:41:16;5.00;;;4.07;;
14048;SDS011;7099;53.922;10.728;2023-10-09T13:45:22;4.83;;;3.83;;
14048;SDS011;7099;53.922;10.728;2023-10-09T13:49:32;5.90;;;3.70;;
14048;SDS011;7099;53.922;10.728;2023-10-09T13:53:38;4.73;;;3.33;;
14048;SDS011;7099;53.922;10.728;2023-10-09T13:57:49;4.03;;;3.53;;
14048;SDS011;7099;53.922;10.728;2023-10-09T14:01:55;4.90;;;3.90;;
14048;SDS011;7099;53.922;10.728;2023-10-09T14:06:01;7.67;;;4.93;;
14048;SDS011;7099;53.922;10.728;2023-10-09T14:10:17;4.40;;;3.77;;
14048;SDS011;7099;53.922;10.728;2023-10-09T14:14:22;4.10;;;3.70;;
14048;SDS011;7099;53.922;10.728;2023-10-09T14:18:30;5.73;;;3.73;;
14048;SDS011;7099;53.922;10.728;2023-10-09T14:22:35;5.17;;;3.33;;
14048;SDS011;7099;53.922;10.728;2023-10-09T14:26:43;4.77;;;3.67;;
14048;SDS011;7099;53.922;10.728;2023-10-09T14:30:52;4.10;;;3.37;;
14048;SDS011;7099;53.922;10.728;2023-10-09T14:35:04;4.03;;;2.97;;
14048;SDS011;7099;53.922;10.728;2023-10-09T14:39:18;4.27;;;2.70;;
14048;SDS011;7099;53.922;10.728;2023-10-09T14:43:24;3.73;;;2.73;;
14048;SDS011;7099;53.922;10.728;2023-10-09T14:47:33;3.30;;;3.00;;
14048;SDS011;7099;53.922;10.728;2023-10-09T14:51:38;5.40;;;2.80;;
14048;SDS011;7099;53.922;10.728;2023-10-09T14:55:44;4.37;;;3.57;;
14048;SDS011;7099;53.922;10.728;2023-10-09T14:59:50;3.80;;;3.40;;
14048;SDS011;7099;53.922;10.728;2023-10-09T15:03:57;4.43;;;3.73;;
14048;SDS011;7099;53.922;10.728;2023-10-09T15:08:04;3.73;;;3.43;;
14048;SDS011;7099;53.922;10.728;2023-10-09T15:12:15;5.03;;;3.60;;
14048;SDS011;7099;53.922;10.728;2023-10-09T15:16:21;11.00;;;4.30;;
14048;SDS011;7099;53.922;10.728;2023-10-09T15:20:31;4.80;;;4.10;;
14048;SDS011;7099;53.922;10.728;2023-10-09T15:24:39;5.23;;;4.53;;
14048;SDS011;7099;53.922;10.728;2023-10-09T15:28:45;5.43;;;4.40;;
14048;SDS011;7099;53.922;10.728;2023-10-09T15:32:51;12.93;;;5.20;;
14048;SDS011;7099;53.922;10.728;2023-10-09T15:36:57;5.27;;;4.77;;
14048;SDS011;7099;53.922;10.728;2023-10-09T15:41:02;6.33;;;4.47;;
14048;SDS011;7099;53.922;10.728;2023-10-09T15:45:10;9.23;;;5.20;;
14048;SDS011;7099;53.922;10.728;2023-10-09T15:49:17;8.40;;;4.93;;
14048;SDS011;7099;53.922;10.728;2023-10-09T15:53:23;6.20;;;5.37;;
14048;SDS011;7099;53.922;10.728;2023-10-09T15:57:29;5.30;;;4.80;;
14048;SDS011;7099;53.922;10.728;2023-10-09T16:01:35;8.80;;;5.80;;
14048;SDS011;7099;53.922;10.728;2023-10-09T16:05:46;9.57;;;7.00;;
14048;SDS011;7099;53.922;10.728;2023-10-09T16:09:51;10.63;;;6.30;;
14048;SDS011;7099;53.922;10.728;2023-10-09T16:13:57;6.83;;;5.80;;
14048;SDS011;7099;53.922;10.728;2023-10-09T16:18:03;9.57;;;6.17;;
14048;SDS011;7099;53.922;10.728;2023-10-09T16:22:12;10.43;;;5.97;;
14048;SDS011;7099;53.922;10.728;2023-10-09T16:26:17;7.63;;;5.60;;
14048;SDS011;7099;53.922;10.728;2023-10-09T16:30:24;8.30;;;5.93;;
14048;SDS011;7099;53.922;10.728;2023-10-09T16:34:30;5.20;;;4.30;;
14048;SDS011;7099;53.922;10.728;2023-10-09T16:38:37;7.83;;;5.60;;
14048;SDS011;7099;53.922;10.728;2023-10-09T16:42:44;8.93;;;6.00;;
14048;SDS011;7099;53.922;10.728;2023-10-09T16:46:49;8.77;;;6.20;;
14048;SDS011;7099;53.922;10.728;2023-10-09T16:50:59;9.30;;;5.20;;
14048;SDS011;7099;53.922;10.728;2023-10-09T16:55:12;5.50;;;4.70;;
14048;SDS011;7099;53.922;10.728;2023-10-09T16:59:19;5.50;;;4.70;;
14048;SDS011;7099;53.922;10.728;2023-10-09T17:03:27;6.77;;;5.53;;
14048;SDS011;7099;53.922;10.728;2023-10-09T17:07:33;10.17;;;5.43;;
14048;SDS011;7099;53.922;10.728;2023-10-09T17:11:39;7.97;;;4.30;;
14048;SDS011;7099;53.922;10.728;2023-10-09T17:15:47;10.30;;;4.57;;
14048;SDS011;7099;53.922;10.728;2023-10-09T17:19:58;11.43;;;5.30;;
14048;SDS011;7099;53.922;10.728;2023-10-09T17:24:06;9.50;;;5.33;;
14048;SDS011;7099;53.922;10.728;2023-10-09T17:28:16;10.00;;;6.10;;
14048;SDS011;7099;53.922;10.728;2023-10-09T17:32:24;9.80;;;6.50;;
14048;SDS011;7099;53.922;10.728;2023-10-09T17:36:30;11.57;;;6.97;;
14048;SDS011;7099;53.922;10.728;2023-10-09T17:40:36;9.23;;;6.17;;
14048;SDS011;7099;53.922;10.728;2023-10-09T17:44:41;6.90;;;5.17;;
14048;SDS011;7099;53.922;10.728;2023-10-09T17:48:48;6.93;;;4.97;;
14048;SDS011;7099;53.922;10.728;2023-10-09T17:52:54;8.67;;;4.97;;
14048;SDS011;7099;53.922;10.728;2023-10-09T17:57:04;5.73;;;4.80;;
14048;SDS011;7099;53.922;10.728;2023-10-09T18:01:10;7.00;;;4.77;;
14048;SDS011;7099;53.922;10.728;2023-10-09T18:05:15;9.63;;;5.60;;
14048;SDS011;7099;53.922;10.728;2023-10-09T18:09:24;12.73;;;6.30;;
14048;SDS011;7099;53.922;10.728;2023-10-09T18:13:35;7.33;;;5.67;;
14048;SDS011;7099;53.922;10.728;2023-10-09T18:17:41;6.80;;;5.47;;
14048;SDS011;7099;53.922;10.728;2023-10-09T18:21:47;9.90;;;5.77;;
14048;SDS011;7099;53.922;10.728;2023-10-09T18:25:58;9.87;;;6.10;;
14048;SDS011;7099;53.922;10.728;2023-10-09T18:30:06;9.70;;;6.63;;
14048;SDS011;7099;53.922;10.728;2023-10-09T18:34:12;7.47;;;6.07;;
14048;SDS011;7099;53.922;10.728;2023-10-09T18:38:18;9.80;;;5.67;;
14048;SDS011;7099;53.922;10.728;2023-10-09T18:42:23;7.57;;;5.60;;
14048;SDS011;7099;53.922;10.728;2023-10-09T18:46:29;10.03;;;6.33;;
14048;SDS011;7099;53.922;10.728;2023-10-09T18:50:38;9.70;;;6.30;;
14048;SDS011;7099;53.922;10.728;2023-10-09T18:54:46;10.83;;;7.53;;
14048;SDS011;7099;53.922;10.728;2023-10-09T18:58:52;12.50;;;7.83;;
14048;SDS011;7099;53.922;10.728;2023-10-09T19:03:01;8.50;;;6.93;;
14048;SDS011;7099;53.922;10.728;2023-10-09T19:07:07;8.17;;;6.53;;
14048;SDS011;7099;53.922;10.728;2023-10-09T19:11:13;16.03;;;7.87;;
14048;SDS011;7099;53.922;10.728;2023-10-09T19:15:20;11.40;;;7.50;;
14048;SDS011;7099;53.922;10.728;2023-10-09T19:19:26;14.30;;;7.87;;
14048;SDS011;7099;53.922;10.728;2023-10-09T19:23:31;9.23;;;7.07;;
14048;SDS011;7099;53.922;10.728;2023-10-09T19:27:37;12.27;;;7.87;;
14048;SDS011;7099;53.922;10.728;2023-10-09T19:31:43;16.87;;;8.57;;
14048;SDS011;7099;53.922;10.728;2023-10-09T19:35:49;10.37;;;8.13;;
14048;SDS011;7099;53.922;10.728;2023-10-09T19:39:54;11.23;;;7.80;;
14048;SDS011;7099;53.922;10.728;2023-10-09T19:44:00;13.47;;;7.87;;
14048;SDS011;7099;53.922;10.728;2023-10-09T19:48:09;14.87;;;8.20;;
14048;SDS011;7099;53.922;10.728;2023-10-09T19:52:16;9.43;;;7.27;;
14048;SDS011;7099;53.922;10.728;2023-10-09T19:56:26;13.83;;;9.73;;
14048;SDS011;7099;53.922;10.728;2023-10-09T20:00:33;18.70;;;8.77;;
14048;SDS011;7099;53.922;10.728;2023-10-09T20:04:38;17.60;;;9.10;;
14048;SDS011;7099;53.922;10.728;2023-10-09T20:08:44;13.40;;;8.43;;
14048;SDS011;7099;53.922;10.728;2023-10-09T20:12:49;12.60;;;7.77;;
14048;SDS011;7099;53.922;10.728;2023-10-09T20:16:55;20.90;;;9.70;;
14048;SDS011;7099;53.922;10.728;2023-10-09T20:21:01;13.53;;;9.13;;
14048;SDS011;7099;53.922;10.728;2023-10-09T20:25:11;18.33;;;10.10;;
14048;SDS011;7099;53.922;10.728;2023-10-09T20:29:19;15.03;;;9.30;;
14048;SDS011;7099;53.922;10.728;2023-10-09T20:33:24;12.40;;;8.43;;
14048;SDS011;7099;53.922;10.728;2023-10-09T20:37:30;16.80;;;9.13;;
14048;SDS011;7099;53.922;10.728;2023-10-09T20:41:36;16.90;;;9.20;;
14048;SDS011;7099;53.922;10.728;2023-10-09T20:45:45;16.40;;;10.27;;
14048;SDS011;7099;53.922;10.728;2023-10-09T20:49:51;19.27;;;10.60;;
14048;SDS011;7099;53.922;10.728;2023-10-09T20:53:57;12.60;;;9.30;;
14048;SDS011;7099;53.922;10.728;2023-10-09T20:58:02;13.13;;;7.90;;
14048;SDS011;7099;53.922;10.728;2023-10-09T21:02:09;13.73;;;9.23;;
14048;SDS011;7099;53.922;10.728;2023-10-09T21:06:15;14.10;;;8.63;;
14048;SDS011;7099;53.922;10.728;2023-10-09T21:10:25;13.23;;;8.30;;
14048;SDS011;7099;53.922;10.728;2023-10-09T21:14:31;24.80;;;9.70;;
14048;SDS011;7099;53.922;10.728;2023-10-09T21:18:36;20.07;;;9.30;;
14048;SDS011;7099;53.922;10.728;2023-10-09T21:22:43;15.80;;;9.57;;
14048;SDS011;7099;53.922;10.728;2023-10-09T21:26:55;13.90;;;8.80;;
14048;SDS011;7099;53.922;10.728;2023-10-09T21:31:01;16.00;;;8.90;;
14048;SDS011;7099;53.922;10.728;2023-10-09T21:35:11;11.13;;;7.27;;
14048;SDS011;7099;53.922;10.728;2023-10-09T21:39:24;12.37;;;7.50;;
14048;SDS011;7099;53.922;10.728;2023-10-09T21:43:29;10.00;;;6.57;;
14048;SDS011;7099;53.922;10.728;2023-10-09T21:47:36;13.37;;;6.80;;
14048;SDS011;7099;53.922;10.728;2023-10-09T21:51:44;10.30;;;7.27;;
14048;SDS011;7099;53.922;10.728;2023-10-09T21:55:50;23.43;;;7.97;;
14048;SDS011;7099;53.922;10.728;2023-10-09T21:59:56;13.07;;;6.40;;
14048;SDS011;7099;53.922;10.728;2023-10-09T22:04:02;13.90;;;7.13;;
14048;SDS011;7099;53.922;10.728;2023-10-09T22:08:10;14.80;;;6.77;;
14048;SDS011;7099;53.922;10.728;2023-10-09T22:12:18;12.03;;;6.47;;
14048;SDS011;7099;53.922;10.728;2023-10-09T22:16:23;14.63;;;7.17;;
14048;SDS011;7099;53.922;10.728;2023-10-09T22:20:30;14.73;;;7.00;;
14048;SDS011;7099;53.922;10.728;2023-10-09T22:24:37;14.87;;;6.60;;
14048;SDS011;7099;53.922;10.728;2023-10-09T22:28:46;12.33;;;6.67;;
14048;SDS011;7099;53.922;10.728;2023-10-09T22:32:52;11.50;;;6.70;;
14048;SDS011;7099;53.922;10.728;2023-10-09T22:36:57;9.93;;;6.70;;
14048;SDS011;7099;53.922;10.728;2023-10-09T22:41:08;14.80;;;5.93;;
14048;SDS011;7099;53.922;10.728;2023-10-09T22:45:13;15.73;;;6.20;;
14048;SDS011;7099;53.922;10.728;2023-10-09T22:49:19;9.97;;;6.13;;
14048;SDS011;7099;53.922;10.728;2023-10-09T22:53:29;11.30;;;6.33;;
14048;SDS011;7099;53.922;10.728;2023-10-09T22:57:43;9.87;;;6.40;;
14048;SDS011;7099;53.922;10.728;2023-10-09T23:01:48;10.40;;;5.93;;
14048;SDS011;7099;53.922;10.728;2023-10-09T23:06:00;13.07;;;5.93;;
14048;SDS011;7099;53.922;10.728;2023-10-09T23:10:16;16.90;;;6.40;;
14048;SDS011;7099;53.922;10.728;2023-10-09T23:14:24;11.60;;;6.90;;
14048;SDS011;7099;53.922;10.728;2023-10-09T23:18:31;16.37;;;7.43;;
14048;SDS011;7099;53.922;10.728;2023-10-09T23:22:38;16.87;;;7.97;;
14048;SDS011;7099;53.922;10.728;2023-10-09T23:26:53;13.90;;;7.43;;
14048;SDS011;7099;53.922;10.728;2023-10-09T23:31:00;15.77;;;7.60;;
14048;SDS011;7099;53.922;10.728;2023-10-09T23:35:09;15.77;;;8.03;;
14048;SDS011;7099;53.922;10.728;2023-10-09T23:39:14;25.40;;;9.13;;
14048;SDS011;7099;53.922;10.728;2023-10-09T23:43:40;18.33;;;7.30;;
14048;SDS011;7099;53.922;10.728;2023-10-09T23:47:52;57.40;;;6.40;;
14048;SDS011;7099;53.922;10.728;2023-10-09T23:51:57;22.03;;;7.00;;
14048;SDS011;7099;53.922;10.728;2023-10-09T23:56:04;10.90;;;6.43;;
